Latest Weather Observations for Port Pirie Airport AWS***

IDS60801

Issued at 7:05 pm CST Friday 19 September 2014 (issued every 30 minutes, with the page automatically refreshed every 10 minutes)

About weather observations | Map of weather stations | Latest weather observations for SA | Other Formats
Station Details ID: 250006 Name: PORT PIRIE AERODROME AWS Lat: -33.23 Lon: 138.00 Height: 10.0 m
Data from the previous 72 hours. | See also: Recent months for locations in South Australia
Date/Time
CST
Temp
°C
App
Temp
°C
Dew
Point
Rel
Hum
%
Delta-T
°C
Wind Press
QNH
hPa
Press
MSL
hPa
Rain
since 9 am
mm
Dir
 
Spd
km/h
Gust
km/h
Spd
kts
Gust
kts
19/07:00pm 13.3 10.2 3.7 52 4.3 ESE 9 11 5 6 - - 0.0
19/06:30pm 15.5 12.0 3.6 45 5.4 SE 11 15 6 8 - - 0.0
19/06:00pm 17.2 13.8 2.0 36 6.8 SE 9 11 5 6 - - 0.0
19/05:30pm 20.7 18.0 0.5 26 9.1 ESE 4 7 2 4 - - 0.0
19/05:00pm 21.2 18.1 -0.1 24 9.5 NE 6 11 3 6 - - 0.0
19/04:30pm 21.6 19.4 0.8 25 9.5 WSW 2 7 1 4 - - 0.0
19/04:00pm 21.6 18.1 1.3 26 9.3 NNE 9 15 5 8 - - 0.0
19/03:30pm 21.4 18.5 1.6 27 9.1 NNW 6 13 3 7 - - 0.0
19/03:00pm 21.3 17.9 1.6 27 9.1 NNE 9 19 5 10 - - 0.0
19/02:30pm 21.3 18.2 1.6 27 9.1 NNE 7 15 4 8 - - 0.0
19/02:00pm 21.4 18.5 2.6 29 8.8 W 7 17 4 9 - - 0.0
19/01:30pm 21.8 19.1 3.5 30 8.8 NW 7 17 4 9 - - 0.0
19/01:00pm 21.3 18.4 2.6 29 8.8 WSW 7 15 4 8 - - 0.0
19/12:30pm 20.5 17.6 2.8 31 8.3 NW 7 19 4 10 - - 0.0
19/12:00pm 20.1 17.5 3.3 33 7.9 N 6 15 3 8 - - 0.0
19/11:30am 20.1 16.9 3.3 33 7.9 N 9 17 5 9 - - 0.0
19/11:00am 18.9 15.3 2.7 34 7.5 N 11 20 6 11 - - 0.0
19/10:30am 18.1 14.4 2.4 35 7.2 N 11 20 6 11 - - 0.0
19/10:00am 18.7 15.5 2.9 35 7.3 NNE 9 19 5 10 - - 0.0
19/09:30am 17.7 15.0 2.8 37 6.8 N 6 13 3 7 - - 0.0
19/09:00am 16.1 13.9 3.5 43 5.8 SW 4 7 2 4 - - 0.0
19/08:30am 14.5 12.8 3.9 49 4.8 SSW 2 6 1 3 - - 0.0
19/08:00am 13.0 10.5 4.9 58 3.7 S 7 9 4 5 - - 0.0
19/07:30am 10.9 8.6 5.0 67 2.7 S 6 9 3 5 - - 0.0
19/07:00am 8.5 5.9 4.3 75 1.8 SE 7 9 4 5 - - 0.0
19/06:30am 6.9 3.9 3.9 81 1.3 SSE 9 11 5 6 - - 0.0
19/06:00am 6.7 3.3 3.9 82 1.2 SSE 11 17 6 9 - - 0.0
19/05:30am 6.7 3.3 3.9 82 1.2 S 11 15 6 8 - - 0.0
19/05:00am 6.6 3.2 3.8 82 1.2 SSE 11 15 6 8 - - 0.0
19/04:30am 7.1 4.1 3.9 80 1.4 SSE 9 13 5 7 - - 0.0
19/04:00am 6.7 3.3 3.9 82 1.2 SSE 11 17 6 9 - - 0.0
19/03:30am 6.5 3.7 3.3 80 1.3 SSE 7 11 4 6 - - 0.0
19/03:00am 7.5 4.5 3.9 78 1.5 SSE 9 9 5 5 - - 0.0
19/02:30am 9.0 6.6 4.4 73 2.0 SE 6 9 3 5 - - 0.0
19/02:00am 9.1 6.2 4.9 75 1.9 SSE 9 13 5 7 - - 0.0
19/01:30am 9.1 6.3 5.1 76 1.8 SSE 9 13 5 7 - - 0.0
19/01:00am 9.0 5.4 5.2 77 1.7 SSE 13 19 7 10 - - 0.0
19/12:30am 8.6 5.0 5.2 79 1.5 SSE 13 19 7 10 - - 0.0
19/12:00am 8.8 5.2 5.2 78 1.6 SSE 13 19 7 10 - - 0.0
 
Date/Time
CST
Temp
°C
App
Temp
°C
Dew
Point
Rel
Hum
%
Delta-T
°C
Wind Press
QNH
hPa
Press
MSL
hPa
Rain
since 9 am
mm
Dir
 
Spd
km/h
Gust
km/h
Spd
kts
Gust
kts
18/11:30pm 8.6 5.4 5.2 79 1.5 SSE 11 17 6 9 - - 0.0
18/11:00pm 9.3 5.8 5.3 76 1.8 S 13 20 7 11 - - 0.0
18/10:30pm 9.5 6.7 5.3 75 1.9 S 9 13 5 7 - - 0.0
18/10:00pm 9.6 6.8 5.2 74 2.0 S 9 11 5 6 - - 0.0
18/09:30pm 9.9 7.1 5.1 72 2.2 S 9 11 5 6 - - 0.0
18/09:00pm 10.5 7.6 4.9 68 2.5 S 9 15 5 8 - - 0.0
18/08:30pm 11.0 7.7 4.7 65 2.8 SSE 11 17 6 9 - - 0.0
18/08:00pm 11.5 8.2 4.5 62 3.2 SSE 11 17 6 9 - - 0.0
18/07:30pm 11.8 8.8 4.3 60 3.4 SSE 9 11 5 6 - - 0.0
18/07:00pm 12.6 9.2 4.1 56 3.8 SSE 11 15 6 8 - - 0.0
18/06:30pm 13.0 10.9 5.9 62 3.3 S 6 9 3 5 - - 0.0
18/06:00pm 14.2 11.5 5.8 57 4.0 SW 9 13 5 7 - - 0.0
18/05:30pm 15.1 11.9 5.3 52 4.6 SW 11 19 6 10 - - 0.0
18/05:00pm 15.7 11.8 5.3 50 4.9 SSW 15 20 8 11 - - 0.0
18/04:30pm 15.8 11.4 4.8 48 5.2 SSW 17 22 9 12 - - 0.0
18/04:00pm 16.6 12.1 4.3 44 5.8 SSW 17 24 9 13 - - 0.0
18/03:30pm 16.8 12.2 3.5 41 6.1 SSW 17 24 9 13 - - 0.0
18/03:00pm 17.0 12.7 3.3 40 6.3 S 15 22 8 12 - - 0.0
18/02:30pm 17.3 12.2 2.9 38 6.6 SSW 19 24 10 13 - - 0.0
18/02:00pm 18.0 14.2 3.9 39 6.6 SW 13 24 7 13 - - 0.0
18/01:30pm 17.2 12.2 3.8 41 6.2 SW 19 28 10 15 - - 0.0
18/01:00pm 17.1 11.5 3.4 40 6.3 SW 22 32 12 17 - - 0.0
18/12:30pm 17.7 14.5 3.2 38 6.7 SSW 9 28 5 15 - - 0.0
18/12:00pm 17.0 14.1 2.6 38 6.5 WSW 7 22 4 12 - - 0.0
18/11:30am 17.2 15.0 3.5 40 6.3 S 4 15 2 8 - - 0.0
18/11:00am 16.4 12.9 3.5 42 5.9 S 11 19 6 10 - - 0.0
18/10:30am 16.1 12.2 3.5 43 5.8 S 13 26 7 14 - - 0.0
18/10:00am 16.1 11.8 3.5 43 5.8 SSE 15 24 8 13 - - 0.0
18/09:30am 15.2 10.9 3.0 44 5.5 SSE 15 22 8 12 - - 0.0
18/09:00am 14.2 10.1 4.2 51 4.6 SSE 15 24 8 13 - - 0.6
18/08:30am 11.7 8.1 5.1 64 3.0 SSE 13 19 7 10 - - 0.6
18/08:00am 9.5 6.0 5.3 75 1.9 SSE 13 19 7 10 - - 0.6
18/07:30am 7.4 3.8 4.9 84 1.1 S 13 17 7 9 - - 0.6
18/07:00am 5.8 2.4 4.0 88 0.8 S 11 15 6 8 - - 0.6
18/06:30am 4.7 1.1 3.0 89 0.7 SSE 11 15 6 8 - - 0.6
18/06:00am 4.4 0.8 2.8 89 0.6 S 11 15 6 8 - - 0.6
18/05:30am 4.5 1.3 2.8 89 0.7 S 9 13 5 7 - - 0.6
18/05:00am 4.7 1.9 3.0 89 0.7 S 7 9 4 5 - - 0.6
18/04:30am 4.5 1.8 2.8 89 0.7 SSE 6 7 3 4 - - 0.6
18/04:00am 5.0 2.3 3.5 90 0.6 SSE 7 9 4 5 - - 0.6
18/03:30am 5.6 2.9 3.9 89 0.7 SSE 7 9 4 5 - - 0.6
18/03:00am 5.7 2.7 4.2 90 0.6 SSE 9 11 5 6 - - 0.6
18/02:30am 5.4 2.4 3.9 90 0.6 S 9 11 5 6 - - 0.6
18/02:00am 5.8 3.3 4.0 88 0.8 S 6 7 3 4 - - 0.6
18/01:30am 6.3 3.8 4.5 88 0.8 S 7 9 4 5 - - 0.6
18/01:00am 6.3 3.8 4.6 89 0.7 SSE 7 11 4 6 - - 0.6
18/12:30am 5.5 2.4 3.7 88 0.8 SSE 9 11 5 6 - - 0.6
18/12:00am 4.7 1.9 3.0 89 0.7 S 7 9 4 5 - - 0.6
 
Date/Time
CST
Temp
°C
App
Temp
°C
Dew
Point
Rel
Hum
%
Delta-T
°C
Wind Press
QNH
hPa
Press
MSL
hPa
Rain
since 9 am
mm
Dir
 
Spd
km/h
Gust
km/h
Spd
kts
Gust
kts
17/11:30pm 5.2 2.4 3.2 87 0.8 S 7 9 4 5 - - 0.6
17/11:00pm 5.5 2.8 3.5 87 0.8 S 7 7 4 4 - - 0.6
17/10:30pm 6.1 3.6 3.8 85 1.0 SSE 6 9 3 5 - - 0.6
17/10:00pm 6.7 4.3 4.4 85 1.0 S 6 11 3 6 - - 0.6
17/09:30pm 6.3 3.7 4.0 85 1.0 S 7 9 4 5 - - 0.6
17/09:00pm 7.7 5.8 4.8 82 1.3 SSE 4 4 2 2 - - 0.6
17/08:30pm 8.4 6.1 4.8 78 1.6 SE 6 7 3 4 - - 0.6
17/08:00pm 9.4 7.3 5.6 77 1.7 SE 6 7 3 4 - - 0.6
17/07:30pm 10.1 8.0 5.9 75 1.9 SE 6 9 3 5 - - 0.6
17/07:00pm 11.0 9.4 6.4 73 2.2 SSE 4 6 2 3 - - 0.6
17/06:30pm 12.4 9.4 5.8 64 3.1 SSW 11 13 6 7 - - 0.6
17/06:00pm 14.6 11.5 5.4 54 4.3 SSW 11 15 6 8 - - 0.6
17/05:30pm 15.7 10.9 4.4 47 5.3 SSW 19 24 10 13 - - 0.6
17/05:00pm 16.5 11.6 5.2 47 5.4 SSW 20 28 11 15 - - 0.6
17/04:30pm 17.3 12.3 4.6 43 6.0 SSW 20 28 11 15 - - 0.6
17/04:00pm 17.1 12.2 5.1 45 5.7 SW 20 28 11 15 - - 0.6
17/03:30pm 17.1 12.1 6.3 49 5.3 SW 22 35 12 19 - - 0.6
17/03:00pm 17.5 13.1 6.4 48 5.5 SW 19 30 10 16 - - 0.6
17/02:30pm 17.6 13.8 7.4 51 5.1 SW 17 28 9 15 - - 0.6
17/02:00pm 17.6 13.0 6.5 48 5.5 SSW 20 24 11 13 - - 0.6
17/01:30pm 17.0 14.2 6.8 51 5.0 WSW 11 22 6 12 - - 0.6
17/01:00pm 17.4 14.1 6.6 49 5.3 WSW 13 22 7 12 - - 0.6
17/12:30pm 17.5 13.9 6.7 49 5.4 SW 15 22 8 12 - - 0.6
17/12:00pm 15.9 13.5 6.9 55 4.4 WSW 9 20 5 11 - - 0.6
17/11:30am 15.7 14.1 8.7 63 3.6 SW 7 17 4 9 - - 0.6
17/11:00am 13.5 12.1 9.0 74 2.3 S 6 9 3 5 - - 0.6
17/10:30am 14.9 13.3 7.9 63 3.5 WSW 6 13 3 7 - - 0.0
17/10:00am 14.7 13.5 8.0 64 3.3 S 4 7 2 4 - - 0.0
17/09:30am 14.7 13.6 8.4 66 3.2 WNW 4 9 2 5 - - 0.0
17/09:00am 13.6 12.4 8.2 70 2.7 ENE 4 6 2 3 - - 2.2
17/08:30am 12.5 11.6 9.1 80 1.7 ENE 4 7 2 4 - - 2.2
17/08:00am 11.5 10.3 9.4 87 1.1 E 6 9 3 5 - - 2.2
17/07:30am 10.2 10.2 9.7 97 0.3 CALM 0 4 0 2 - - 2.2
17/07:00am 8.5 6.4 8.2 98 0.1 S 9 13 5 7 - - 2.2
17/06:30am 7.9 7.3 7.5 97 0.2 CALM 0 0 0 0 - - 2.2
17/06:00am 7.1 5.5 6.4 95 0.3 ENE 4 6 2 3 - - 2.2
17/05:30am 8.3 7.4 7.7 96 0.3 NE 2 4 1 2 - - 2.2
17/05:00am 9.0 8.3 8.4 96 0.3 ENE 2 4 1 2 - - 2.2
17/04:30am 9.1 8.3 8.3 95 0.4 ENE 2 4 1 2 - - 2.2
17/04:00am 9.8 8.4 8.7 93 0.5 SE 6 6 3 3 - - 2.0
17/03:30am 10.9 10.6 10.0 94 0.5 ESE 2 4 1 2 - - 2.0
17/03:00am 11.1 10.1 10.3 95 0.4 SE 6 6 3 3 - - 2.0
17/02:30am 11.1 10.9 10.3 95 0.4 NNE 2 4 1 2 - - 2.0
17/02:00am 11.0 10.3 10.2 95 0.4 E 4 6 2 3 - - 1.8
17/01:30am 11.2 10.7 10.6 96 0.3 NE 4 4 2 2 - - 1.8
17/01:00am 11.1 10.9 10.3 95 0.4 N 2 4 1 2 - - 1.8
17/12:30am 11.0 10.3 10.1 94 0.5 NE 4 4 2 2 - - 1.8
17/12:00am 11.3 11.0 10.2 93 0.6 ENE 2 4 1 2 - - 1.8
 
Date/Time
CST
Temp
°C
App
Temp
°C
Dew
Point
Rel
Hum
%
Delta-T
°C
Wind Press
QNH
hPa
Press
MSL
hPa
Rain
since 9 am
mm
Dir
 
Spd
km/h
Gust
km/h
Spd
kts
Gust
kts
16/11:30pm 11.6 11.4 10.5 93 0.6 N 2 4 1 2 - - 1.4
16/11:00pm 11.6 11.4 10.5 93 0.6 SSW 2 4 1 2 - - 1.2
16/10:30pm 11.5 9.1 10.1 91 0.7 S 13 22 7 12 - - 1.2
16/10:00pm 13.5 10.6 8.1 70 2.7 S 13 19 7 10 - - 0.0
16/09:30pm 13.5 12.5 8.8 73 2.4 S 4 6 2 3 - - 0.0
16/09:00pm 13.5 11.4 8.4 71 2.5 S 9 13 5 7 - - 0.0
16/08:30pm 13.7 10.0 8.1 69 2.8 SSW 17 24 9 13 - - 0.0
16/08:00pm 14.7 11.8 8.2 65 3.3 SW 13 20 7 11 - - 0.0
16/07:30pm 14.7 12.3 6.8 59 3.8 SW 9 17 5 9 - - 0.0

Other Formats:

Comma delimited format used in spreadsheet applications
http://www.bom.gov.au/fwo/IDS60801/IDS60801.99001.axf

JavaScript Object Notation format (JSON) in row-major order
http://www.bom.gov.au/fwo/IDS60801/IDS60801.99001.json